sensor_id;sensor_type;location;lat;lon;timestamp;P1;durP1;ratioP1;P2;durP2;ratioP2
27999;SDS011;15328;50.860;10.562;2024-01-11T00:01:25;49.90;;;19.10;;
27999;SDS011;15328;50.860;10.562;2024-01-11T00:06:26;50.38;;;20.63;;
27999;SDS011;15328;50.860;10.562;2024-01-11T00:11:26;54.35;;;20.10;;
27999;SDS011;15328;50.860;10.562;2024-01-11T00:16:26;52.22;;;20.58;;
27999;SDS011;15328;50.860;10.562;2024-01-11T00:21:27;56.30;;;20.45;;
27999;SDS011;15328;50.860;10.562;2024-01-11T00:26:27;50.10;;;20.98;;
27999;SDS011;15328;50.860;10.562;2024-01-11T00:31:27;56.20;;;21.50;;
27999;SDS011;15328;50.860;10.562;2024-01-11T00:36:28;48.37;;;20.80;;
27999;SDS011;15328;50.860;10.562;2024-01-11T00:41:28;48.80;;;20.58;;
27999;SDS011;15328;50.860;10.562;2024-01-11T00:46:29;60.15;;;23.42;;
27999;SDS011;15328;50.860;10.562;2024-01-11T00:51:29;55.55;;;21.75;;
27999;SDS011;15328;50.860;10.562;2024-01-11T00:56:29;61.08;;;22.02;;
27999;SDS011;15328;50.860;10.562;2024-01-11T01:01:30;60.03;;;23.73;;
27999;SDS011;15328;50.860;10.562;2024-01-11T01:06:30;64.20;;;24.50;;
27999;SDS011;15328;50.860;10.562;2024-01-11T01:11:30;66.47;;;24.67;;
27999;SDS011;15328;50.860;10.562;2024-01-11T01:16:31;68.15;;;26.25;;
27999;SDS011;15328;50.860;10.562;2024-01-11T01:21:31;66.07;;;24.55;;
27999;SDS011;15328;50.860;10.562;2024-01-11T01:26:31;64.65;;;26.08;;
27999;SDS011;15328;50.860;10.562;2024-01-11T01:31:32;67.97;;;27.08;;
27999;SDS011;15328;50.860;10.562;2024-01-11T01:36:37;72.20;;;25.20;;
27999;SDS011;15328;50.860;10.562;2024-01-11T01:41:37;62.65;;;24.88;;
27999;SDS011;15328;50.860;10.562;2024-01-11T01:46:38;69.07;;;26.38;;
27999;SDS011;15328;50.860;10.562;2024-01-11T01:51:38;63.67;;;24.73;;
27999;SDS011;15328;50.860;10.562;2024-01-11T01:56:39;62.03;;;24.15;;
27999;SDS011;15328;50.860;10.562;2024-01-11T02:01:39;55.13;;;22.83;;
27999;SDS011;15328;50.860;10.562;2024-01-11T02:06:40;53.83;;;21.10;;
27999;SDS011;15328;50.860;10.562;2024-01-11T02:11:41;54.67;;;21.40;;
27999;SDS011;15328;50.860;10.562;2024-01-11T02:16:41;57.00;;;22.73;;
27999;SDS011;15328;50.860;10.562;2024-01-11T02:21:42;48.15;;;20.27;;
27999;SDS011;15328;50.860;10.562;2024-01-11T02:27:02;46.58;;;19.00;;
27999;SDS011;15328;50.860;10.562;2024-01-11T02:32:04;47.35;;;18.25;;
27999;SDS011;15328;50.860;10.562;2024-01-11T02:37:06;39.67;;;15.85;;
27999;SDS011;15328;50.860;10.562;2024-01-11T02:42:07;42.33;;;17.88;;
27999;SDS011;15328;50.860;10.562;2024-01-11T02:47:07;69.15;;;26.08;;
27999;SDS011;15328;50.860;10.562;2024-01-11T02:52:08;71.53;;;26.50;;
27999;SDS011;15328;50.860;10.562;2024-01-11T02:57:08;54.60;;;19.90;;
27999;SDS011;15328;50.860;10.562;2024-01-11T03:02:08;50.75;;;21.60;;
27999;SDS011;15328;50.860;10.562;2024-01-11T03:07:10;47.05;;;18.60;;
27999;SDS011;15328;50.860;10.562;2024-01-11T03:12:10;48.22;;;18.88;;
27999;SDS011;15328;50.860;10.562;2024-01-11T03:17:11;52.17;;;20.55;;
27999;SDS011;15328;50.860;10.562;2024-01-11T03:22:11;54.08;;;21.08;;
27999;SDS011;15328;50.860;10.562;2024-01-11T03:27:12;54.58;;;22.60;;
27999;SDS011;15328;50.860;10.562;2024-01-11T03:32:12;58.67;;;22.43;;
27999;SDS011;15328;50.860;10.562;2024-01-11T03:37:13;57.03;;;20.65;;
27999;SDS011;15328;50.860;10.562;2024-01-11T03:42:14;64.85;;;24.05;;
27999;SDS011;15328;50.860;10.562;2024-01-11T03:47:14;62.55;;;23.73;;
27999;SDS011;15328;50.860;10.562;2024-01-11T03:52:14;57.60;;;22.20;;
27999;SDS011;15328;50.860;10.562;2024-01-11T03:57:15;55.33;;;22.07;;
27999;SDS011;15328;50.860;10.562;2024-01-11T04:02:16;56.05;;;22.52;;
27999;SDS011;15328;50.860;10.562;2024-01-11T04:07:16;59.78;;;22.88;;
27999;SDS011;15328;50.860;10.562;2024-01-11T04:12:17;56.50;;;21.05;;
27999;SDS011;15328;50.860;10.562;2024-01-11T04:17:17;58.80;;;21.50;;
27999;SDS011;15328;50.860;10.562;2024-01-11T04:22:17;60.28;;;22.60;;
27999;SDS011;15328;50.860;10.562;2024-01-11T04:27:18;53.08;;;21.50;;
27999;SDS011;15328;50.860;10.562;2024-01-11T04:32:18;47.13;;;19.27;;
27999;SDS011;15328;50.860;10.562;2024-01-11T04:37:18;42.67;;;15.77;;
27999;SDS011;15328;50.860;10.562;2024-01-11T04:42:19;32.85;;;13.52;;
27999;SDS011;15328;50.860;10.562;2024-01-11T04:47:19;26.52;;;10.70;;
27999;SDS011;15328;50.860;10.562;2024-01-11T04:52:19;22.05;;;8.80;;
27999;SDS011;15328;50.860;10.562;2024-01-11T04:57:20;24.40;;;10.05;;
27999;SDS011;15328;50.860;10.562;2024-01-11T05:02:20;20.38;;;8.35;;
27999;SDS011;15328;50.860;10.562;2024-01-11T05:07:21;21.48;;;9.20;;
27999;SDS011;15328;50.860;10.562;2024-01-11T05:12:21;21.00;;;9.63;;
27999;SDS011;15328;50.860;10.562;2024-01-11T05:17:21;26.38;;;11.35;;
27999;SDS011;15328;50.860;10.562;2024-01-11T05:22:22;22.48;;;9.77;;
27999;SDS011;15328;50.860;10.562;2024-01-11T05:27:22;24.48;;;10.02;;
27999;SDS011;15328;50.860;10.562;2024-01-11T05:32:23;22.77;;;9.88;;
27999;SDS011;15328;50.860;10.562;2024-01-11T05:37:23;24.08;;;9.90;;
27999;SDS011;15328;50.860;10.562;2024-01-11T05:42:23;21.95;;;9.88;;
27999;SDS011;15328;50.860;10.562;2024-01-11T05:47:24;30.58;;;13.57;;
27999;SDS011;15328;50.860;10.562;2024-01-11T05:52:24;33.30;;;14.20;;
27999;SDS011;15328;50.860;10.562;2024-01-11T05:57:25;29.05;;;11.88;;
27999;SDS011;15328;50.860;10.562;2024-01-11T06:02:25;33.13;;;13.55;;
27999;SDS011;15328;50.860;10.562;2024-01-11T06:07:26;29.17;;;12.75;;
27999;SDS011;15328;50.860;10.562;2024-01-11T06:12:26;30.38;;;13.20;;
27999;SDS011;15328;50.860;10.562;2024-01-11T06:17:26;27.13;;;11.25;;
27999;SDS011;15328;50.860;10.562;2024-01-11T06:22:27;23.85;;;9.93;;
27999;SDS011;15328;50.860;10.562;2024-01-11T06:27:27;21.23;;;8.80;;
27999;SDS011;15328;50.860;10.562;2024-01-11T06:32:28;25.20;;;10.15;;
27999;SDS011;15328;50.860;10.562;2024-01-11T06:37:28;27.92;;;11.93;;
27999;SDS011;15328;50.860;10.562;2024-01-11T06:42:29;30.73;;;13.38;;
27999;SDS011;15328;50.860;10.562;2024-01-11T06:47:30;28.17;;;12.32;;
27999;SDS011;15328;50.860;10.562;2024-01-11T06:52:31;27.85;;;11.93;;
27999;SDS011;15328;50.860;10.562;2024-01-11T06:57:31;25.73;;;11.52;;
27999;SDS011;15328;50.860;10.562;2024-01-11T07:02:31;27.60;;;12.07;;
27999;SDS011;15328;50.860;10.562;2024-01-11T07:07:32;27.65;;;12.00;;
27999;SDS011;15328;50.860;10.562;2024-01-11T07:12:32;25.45;;;11.32;;
27999;SDS011;15328;50.860;10.562;2024-01-11T07:17:33;25.10;;;12.10;;
27999;SDS011;15328;50.860;10.562;2024-01-11T07:22:33;28.45;;;11.80;;
27999;SDS011;15328;50.860;10.562;2024-01-11T07:27:34;25.23;;;11.25;;
27999;SDS011;15328;50.860;10.562;2024-01-11T07:32:35;25.00;;;11.68;;
27999;SDS011;15328;50.860;10.562;2024-01-11T07:37:38;21.98;;;9.88;;
27999;SDS011;15328;50.860;10.562;2024-01-11T07:42:39;26.83;;;10.80;;
27999;SDS011;15328;50.860;10.562;2024-01-11T07:47:40;18.10;;;9.07;;
27999;SDS011;15328;50.860;10.562;2024-01-11T07:52:41;16.98;;;8.10;;
27999;SDS011;15328;50.860;10.562;2024-01-11T07:57:41;16.30;;;7.60;;
27999;SDS011;15328;50.860;10.562;2024-01-11T08:02:42;16.30;;;8.18;;
27999;SDS011;15328;50.860;10.562;2024-01-11T08:07:42;16.77;;;7.70;;
27999;SDS011;15328;50.860;10.562;2024-01-11T08:12:42;14.85;;;7.55;;
27999;SDS011;15328;50.860;10.562;2024-01-11T08:17:44;20.40;;;8.60;;
27999;SDS011;15328;50.860;10.562;2024-01-11T08:22:45;18.73;;;8.82;;
27999;SDS011;15328;50.860;10.562;2024-01-11T08:27:46;18.85;;;8.18;;
27999;SDS011;15328;50.860;10.562;2024-01-11T08:32:47;20.15;;;9.20;;
27999;SDS011;15328;50.860;10.562;2024-01-11T08:37:47;18.50;;;8.27;;
27999;SDS011;15328;50.860;10.562;2024-01-11T08:42:47;16.55;;;8.52;;
27999;SDS011;15328;50.860;10.562;2024-01-11T08:47:48;15.75;;;7.68;;
27999;SDS011;15328;50.860;10.562;2024-01-11T08:52:48;16.58;;;7.25;;
27999;SDS011;15328;50.860;10.562;2024-01-11T08:57:49;18.75;;;8.25;;
27999;SDS011;15328;50.860;10.562;2024-01-11T09:02:49;13.10;;;5.97;;
27999;SDS011;15328;50.860;10.562;2024-01-11T09:07:49;9.82;;;5.15;;
27999;SDS011;15328;50.860;10.562;2024-01-11T09:12:50;8.60;;;4.43;;
27999;SDS011;15328;50.860;10.562;2024-01-11T09:17:50;8.20;;;3.92;;
27999;SDS011;15328;50.860;10.562;2024-01-11T09:22:50;8.88;;;4.63;;
27999;SDS011;15328;50.860;10.562;2024-01-11T09:27:50;16.38;;;8.20;;
27999;SDS011;15328;50.860;10.562;2024-01-11T09:32:51;19.17;;;10.02;;
27999;SDS011;15328;50.860;10.562;2024-01-11T09:37:52;20.65;;;10.30;;
27999;SDS011;15328;50.860;10.562;2024-01-11T09:42:52;30.75;;;13.15;;
27999;SDS011;15328;50.860;10.562;2024-01-11T09:47:53;32.75;;;15.93;;
27999;SDS011;15328;50.860;10.562;2024-01-11T09:52:54;26.52;;;14.02;;
27999;SDS011;15328;50.860;10.562;2024-01-11T09:57:56;22.75;;;12.50;;
27999;SDS011;15328;50.860;10.562;2024-01-11T10:02:59;14.65;;;7.50;;
27999;SDS011;15328;50.860;10.562;2024-01-11T10:08:00;13.60;;;7.30;;
27999;SDS011;15328;50.860;10.562;2024-01-11T10:13:00;18.23;;;10.40;;
27999;SDS011;15328;50.860;10.562;2024-01-11T10:18:01;15.80;;;10.45;;
27999;SDS011;15328;50.860;10.562;2024-01-11T10:23:02;25.33;;;13.98;;
27999;SDS011;15328;50.860;10.562;2024-01-11T10:28:03;18.45;;;12.10;;
27999;SDS011;15328;50.860;10.562;2024-01-11T10:33:03;17.48;;;11.55;;
27999;SDS011;15328;50.860;10.562;2024-01-11T10:38:08;25.20;;;14.13;;
27999;SDS011;15328;50.860;10.562;2024-01-11T10:43:10;10.82;;;7.07;;
27999;SDS011;15328;50.860;10.562;2024-01-11T10:48:12;12.00;;;7.93;;
27999;SDS011;15328;50.860;10.562;2024-01-11T10:58:42;12.85;;;7.63;;
27999;SDS011;15328;50.860;10.562;2024-01-11T11:03:43;11.50;;;6.90;;
27999;SDS011;15328;50.860;10.562;2024-01-11T11:08:45;8.23;;;5.45;;
27999;SDS011;15328;50.860;10.562;2024-01-11T11:13:49;9.18;;;6.00;;
27999;SDS011;15328;50.860;10.562;2024-01-11T11:18:52;9.18;;;5.47;;
27999;SDS011;15328;50.860;10.562;2024-01-11T11:23:55;8.10;;;5.30;;
27999;SDS011;15328;50.860;10.562;2024-01-11T11:28:56;8.63;;;5.30;;
27999;SDS011;15328;50.860;10.562;2024-01-11T11:33:58;7.45;;;4.70;;
27999;SDS011;15328;50.860;10.562;2024-01-11T11:39:02;7.95;;;5.13;;
27999;SDS011;15328;50.860;10.562;2024-01-11T11:44:03;6.68;;;4.82;;
27999;SDS011;15328;50.860;10.562;2024-01-11T11:49:04;8.05;;;5.57;;
27999;SDS011;15328;50.860;10.562;2024-01-11T11:54:04;7.70;;;5.22;;
27999;SDS011;15328;50.860;10.562;2024-01-11T11:59:06;10.75;;;5.60;;
27999;SDS011;15328;50.860;10.562;2024-01-11T12:04:08;8.15;;;5.60;;
27999;SDS011;15328;50.860;10.562;2024-01-11T12:09:08;8.87;;;5.53;;
27999;SDS011;15328;50.860;10.562;2024-01-11T12:14:09;9.25;;;5.85;;
27999;SDS011;15328;50.860;10.562;2024-01-11T12:19:09;9.07;;;5.70;;
27999;SDS011;15328;50.860;10.562;2024-01-11T12:24:09;8.40;;;5.87;;
27999;SDS011;15328;50.860;10.562;2024-01-11T12:29:10;8.23;;;5.15;;
27999;SDS011;15328;50.860;10.562;2024-01-11T12:34:14;8.57;;;5.37;;
27999;SDS011;15328;50.860;10.562;2024-01-11T12:39:16;7.60;;;5.32;;
27999;SDS011;15328;50.860;10.562;2024-01-11T12:44:17;7.70;;;5.00;;
27999;SDS011;15328;50.860;10.562;2024-01-11T12:49:19;5.60;;;3.90;;
27999;SDS011;15328;50.860;10.562;2024-01-11T12:54:20;6.18;;;4.22;;
27999;SDS011;15328;50.860;10.562;2024-01-11T12:59:20;7.53;;;4.30;;
27999;SDS011;15328;50.860;10.562;2024-01-11T13:04:25;6.50;;;4.40;;
27999;SDS011;15328;50.860;10.562;2024-01-11T13:09:25;6.13;;;4.40;;
27999;SDS011;15328;50.860;10.562;2024-01-11T13:14:26;7.57;;;4.95;;
27999;SDS011;15328;50.860;10.562;2024-01-11T13:19:28;3.45;;;2.42;;
27999;SDS011;15328;50.860;10.562;2024-01-11T13:24:29;4.22;;;1.75;;
27999;SDS011;15328;50.860;10.562;2024-01-11T13:29:30;3.63;;;2.00;;
27999;SDS011;15328;50.860;10.562;2024-01-11T13:34:30;3.33;;;2.13;;
27999;SDS011;15328;50.860;10.562;2024-01-11T13:39:30;4.70;;;2.37;;
27999;SDS011;15328;50.860;10.562;2024-01-11T13:44:31;6.57;;;3.97;;
27999;SDS011;15328;50.860;10.562;2024-01-11T13:49:31;4.47;;;2.73;;
27999;SDS011;15328;50.860;10.562;2024-01-11T13:54:33;5.30;;;2.83;;
27999;SDS011;15328;50.860;10.562;2024-01-11T13:59:33;5.53;;;2.97;;
27999;SDS011;15328;50.860;10.562;2024-01-11T14:04:34;3.70;;;2.10;;
27999;SDS011;15328;50.860;10.562;2024-01-11T14:09:34;4.55;;;2.63;;
27999;SDS011;15328;50.860;10.562;2024-01-11T14:14:34;4.75;;;2.70;;
27999;SDS011;15328;50.860;10.562;2024-01-11T14:19:35;4.60;;;2.63;;
27999;SDS011;15328;50.860;10.562;2024-01-11T14:24:35;5.40;;;2.67;;
27999;SDS011;15328;50.860;10.562;2024-01-11T14:29:35;8.77;;;4.30;;
27999;SDS011;15328;50.860;10.562;2024-01-11T14:34:36;8.88;;;4.68;;
27999;SDS011;15328;50.860;10.562;2024-01-11T14:39:36;9.68;;;5.28;;
27999;SDS011;15328;50.860;10.562;2024-01-11T14:44:36;11.80;;;5.57;;
27999;SDS011;15328;50.860;10.562;2024-01-11T14:49:37;10.90;;;5.53;;
27999;SDS011;15328;50.860;10.562;2024-01-11T14:54:37;10.93;;;5.53;;
27999;SDS011;15328;50.860;10.562;2024-01-11T14:59:38;10.25;;;5.75;;
27999;SDS011;15328;50.860;10.562;2024-01-11T15:04:38;11.65;;;5.88;;
27999;SDS011;15328;50.860;10.562;2024-01-11T15:09:39;14.57;;;6.82;;
27999;SDS011;15328;50.860;10.562;2024-01-11T15:14:39;13.15;;;6.65;;
27999;SDS011;15328;50.860;10.562;2024-01-11T15:19:39;11.77;;;6.43;;
27999;SDS011;15328;50.860;10.562;2024-01-11T15:24:40;13.55;;;7.13;;
27999;SDS011;15328;50.860;10.562;2024-01-11T15:29:41;13.25;;;6.38;;
27999;SDS011;15328;50.860;10.562;2024-01-11T15:34:42;12.30;;;6.28;;
27999;SDS011;15328;50.860;10.562;2024-01-11T15:39:42;11.70;;;6.30;;
27999;SDS011;15328;50.860;10.562;2024-01-11T15:44:42;14.23;;;7.20;;
27999;SDS011;15328;50.860;10.562;2024-01-11T15:49:44;13.05;;;6.70;;
27999;SDS011;15328;50.860;10.562;2024-01-11T15:54:44;13.93;;;6.88;;
27999;SDS011;15328;50.860;10.562;2024-01-11T15:59:44;11.90;;;6.43;;
27999;SDS011;15328;50.860;10.562;2024-01-11T16:04:45;14.77;;;7.22;;
27999;SDS011;15328;50.860;10.562;2024-01-11T16:09:45;15.30;;;7.00;;
27999;SDS011;15328;50.860;10.562;2024-01-11T16:14:46;17.05;;;8.32;;
27999;SDS011;15328;50.860;10.562;2024-01-11T16:19:46;15.90;;;7.70;;
27999;SDS011;15328;50.860;10.562;2024-01-11T16:24:47;13.90;;;7.53;;
27999;SDS011;15328;50.860;10.562;2024-01-11T16:29:47;13.32;;;7.68;;
27999;SDS011;15328;50.860;10.562;2024-01-11T16:34:48;19.67;;;9.32;;
27999;SDS011;15328;50.860;10.562;2024-01-11T16:39:49;16.85;;;8.55;;
27999;SDS011;15328;50.860;10.562;2024-01-11T16:44:49;21.13;;;10.90;;
27999;SDS011;15328;50.860;10.562;2024-01-11T16:49:49;27.58;;;12.88;;
27999;SDS011;15328;50.860;10.562;2024-01-11T16:54:50;32.70;;;17.00;;
27999;SDS011;15328;50.860;10.562;2024-01-11T16:59:50;33.03;;;16.60;;
27999;SDS011;15328;50.860;10.562;2024-01-11T17:04:50;34.80;;;16.20;;
27999;SDS011;15328;50.860;10.562;2024-01-11T17:09:51;27.63;;;13.90;;
27999;SDS011;15328;50.860;10.562;2024-01-11T17:14:51;27.63;;;13.45;;
27999;SDS011;15328;50.860;10.562;2024-01-11T17:19:51;23.23;;;11.67;;
27999;SDS011;15328;50.860;10.562;2024-01-11T17:24:52;24.60;;;11.68;;
27999;SDS011;15328;50.860;10.562;2024-01-11T17:29:52;27.50;;;12.70;;
27999;SDS011;15328;50.860;10.562;2024-01-11T17:34:55;24.38;;;11.48;;
27999;SDS011;15328;50.860;10.562;2024-01-11T17:39:56;21.85;;;10.43;;
27999;SDS011;15328;50.860;10.562;2024-01-11T17:44:56;24.77;;;11.73;;
27999;SDS011;15328;50.860;10.562;2024-01-11T17:49:57;31.23;;;13.98;;
27999;SDS011;15328;50.860;10.562;2024-01-11T17:54:57;28.60;;;13.70;;
27999;SDS011;15328;50.860;10.562;2024-01-11T17:59:58;32.30;;;13.50;;
27999;SDS011;15328;50.860;10.562;2024-01-11T18:04:59;25.50;;;12.13;;
27999;SDS011;15328;50.860;10.562;2024-01-11T18:09:59;23.52;;;11.30;;
27999;SDS011;15328;50.860;10.562;2024-01-11T18:15:00;19.73;;;10.13;;
27999;SDS011;15328;50.860;10.562;2024-01-11T18:20:01;38.40;;;18.10;;
27999;SDS011;15328;50.860;10.562;2024-01-11T18:25:01;22.60;;;12.27;;
27999;SDS011;15328;50.860;10.562;2024-01-11T18:30:02;17.70;;;8.63;;
27999;SDS011;15328;50.860;10.562;2024-01-11T18:35:03;14.25;;;7.47;;
27999;SDS011;15328;50.860;10.562;2024-01-11T18:40:04;11.93;;;6.85;;
27999;SDS011;15328;50.860;10.562;2024-01-11T18:45:05;12.02;;;6.30;;
27999;SDS011;15328;50.860;10.562;2024-01-11T18:50:06;12.55;;;6.80;;
27999;SDS011;15328;50.860;10.562;2024-01-11T18:55:08;11.20;;;6.00;;
27999;SDS011;15328;50.860;10.562;2024-01-11T19:00:09;9.80;;;5.55;;
27999;SDS011;15328;50.860;10.562;2024-01-11T19:05:10;12.45;;;7.00;;
27999;SDS011;15328;50.860;10.562;2024-01-11T19:10:11;10.38;;;5.93;;
27999;SDS011;15328;50.860;10.562;2024-01-11T19:15:12;10.65;;;5.32;;
27999;SDS011;15328;50.860;10.562;2024-01-11T19:20:13;9.57;;;5.30;;
27999;SDS011;15328;50.860;10.562;2024-01-11T19:25:14;8.15;;;4.53;;
27999;SDS011;15328;50.860;10.562;2024-01-11T19:30:14;8.57;;;4.53;;
27999;SDS011;15328;50.860;10.562;2024-01-11T19:35:15;8.85;;;4.90;;
27999;SDS011;15328;50.860;10.562;2024-01-11T19:40:15;9.45;;;5.47;;
27999;SDS011;15328;50.860;10.562;2024-01-11T19:45:16;9.00;;;5.00;;
27999;SDS011;15328;50.860;10.562;2024-01-11T19:50:16;7.22;;;4.20;;
27999;SDS011;15328;50.860;10.562;2024-01-11T19:55:17;6.45;;;3.45;;
27999;SDS011;15328;50.860;10.562;2024-01-11T20:00:17;5.50;;;3.37;;
27999;SDS011;15328;50.860;10.562;2024-01-11T20:05:18;6.20;;;3.75;;
27999;SDS011;15328;50.860;10.562;2024-01-11T20:10:18;5.82;;;3.20;;
27999;SDS011;15328;50.860;10.562;2024-01-11T20:15:18;5.63;;;3.42;;
27999;SDS011;15328;50.860;10.562;2024-01-11T20:20:19;5.53;;;3.55;;
27999;SDS011;15328;50.860;10.562;2024-01-11T20:25:19;5.93;;;3.65;;
27999;SDS011;15328;50.860;10.562;2024-01-11T20:30:19;6.82;;;3.95;;
27999;SDS011;15328;50.860;10.562;2024-01-11T20:35:20;6.53;;;3.80;;
27999;SDS011;15328;50.860;10.562;2024-01-11T20:40:20;7.85;;;3.83;;
27999;SDS011;15328;50.860;10.562;2024-01-11T20:45:21;5.68;;;3.63;;
27999;SDS011;15328;50.860;10.562;2024-01-11T20:50:21;6.53;;;3.73;;
27999;SDS011;15328;50.860;10.562;2024-01-11T20:55:21;5.30;;;3.40;;
27999;SDS011;15328;50.860;10.562;2024-01-11T21:00:21;5.40;;;3.13;;
27999;SDS011;15328;50.860;10.562;2024-01-11T21:05:22;4.72;;;3.45;;
27999;SDS011;15328;50.860;10.562;2024-01-11T21:10:24;6.65;;;3.58;;
27999;SDS011;15328;50.860;10.562;2024-01-11T21:15:26;4.70;;;3.33;;
27999;SDS011;15328;50.860;10.562;2024-01-11T21:20:27;4.65;;;3.08;;
27999;SDS011;15328;50.860;10.562;2024-01-11T21:25:27;4.50;;;2.90;;
27999;SDS011;15328;50.860;10.562;2024-01-11T21:30:27;5.90;;;3.22;;
27999;SDS011;15328;50.860;10.562;2024-01-11T21:35:28;5.35;;;3.47;;
27999;SDS011;15328;50.860;10.562;2024-01-11T21:40:28;7.07;;;3.60;;
27999;SDS011;15328;50.860;10.562;2024-01-11T21:45:28;4.57;;;3.05;;
27999;SDS011;15328;50.860;10.562;2024-01-11T21:50:29;5.75;;;3.60;;
27999;SDS011;15328;50.860;10.562;2024-01-11T21:55:30;6.50;;;3.40;;
27999;SDS011;15328;50.860;10.562;2024-01-11T22:00:31;6.93;;;3.83;;
27999;SDS011;15328;50.860;10.562;2024-01-11T22:05:34;6.60;;;4.13;;
27999;SDS011;15328;50.860;10.562;2024-01-11T22:10:34;6.10;;;3.97;;
27999;SDS011;15328;50.860;10.562;2024-01-11T22:15:35;6.32;;;3.63;;
27999;SDS011;15328;50.860;10.562;2024-01-11T22:20:36;6.72;;;4.25;;
27999;SDS011;15328;50.860;10.562;2024-01-11T22:25:36;7.95;;;4.78;;
27999;SDS011;15328;50.860;10.562;2024-01-11T22:30:37;7.10;;;4.45;;
27999;SDS011;15328;50.860;10.562;2024-01-11T22:35:38;7.63;;;4.60;;
27999;SDS011;15328;50.860;10.562;2024-01-11T22:40:38;8.20;;;5.03;;
27999;SDS011;15328;50.860;10.562;2024-01-11T22:45:38;8.77;;;5.20;;
27999;SDS011;15328;50.860;10.562;2024-01-11T22:50:38;9.55;;;5.05;;
27999;SDS011;15328;50.860;10.562;2024-01-11T22:55:39;8.50;;;5.03;;
27999;SDS011;15328;50.860;10.562;2024-01-11T23:00:39;8.60;;;4.90;;
27999;SDS011;15328;50.860;10.562;2024-01-11T23:05:39;9.40;;;5.22;;
27999;SDS011;15328;50.860;10.562;2024-01-11T23:10:40;7.70;;;5.13;;
27999;SDS011;15328;50.860;10.562;2024-01-11T23:15:40;11.00;;;5.22;;
27999;SDS011;15328;50.860;10.562;2024-01-11T23:20:40;10.05;;;5.47;;
27999;SDS011;15328;50.860;10.562;2024-01-11T23:25:41;10.55;;;5.57;;
27999;SDS011;15328;50.860;10.562;2024-01-11T23:30:41;8.55;;;5.18;;
27999;SDS011;15328;50.860;10.562;2024-01-11T23:35:41;9.13;;;4.97;;
27999;SDS011;15328;50.860;10.562;2024-01-11T23:40:42;11.20;;;5.40;;
27999;SDS011;15328;50.860;10.562;2024-01-11T23:45:42;10.07;;;5.50;;
27999;SDS011;15328;50.860;10.562;2024-01-11T23:50:43;9.25;;;5.18;;
27999;SDS011;15328;50.860;10.562;2024-01-11T23:55:43;9.45;;;5.50;;
